Main page


Airports :

Valencia, Spain


latitude: 39-37-26N, longitude: 0-28-26W, elevation: 127 m

Current weather observation

The report was made 20 minutes ago, at 23:00 UTC
Wind 3 kt from the North, varying between West and North/Northeast
Temperature 6°C
Humidity 56%
Pressure 1015 hPa
Visibility 10 km or more

METAR: LEBT 222300Z AUTO 35003KT 260V030 9999 NCD 06/M02 Q1015

Time: 00:20 (23:20 UTC)

TAF: missing

Weather observations and forecasts of more than 4000 airports (METAR and TAF reports).

The available stations are represented by yellow and red dots on the map.

Hover mouse over dot to see the name of the station.

Then click to see weather observations and forecasts.

To change the map : click on the green buttons with a black cross to zoom in, on the green button with a dash to zoom out, or on the green arrows for adjacent maps.